CFS weather

Coffs Harbour Airport
Coffs Harbour, New South Wales, Australia

Public forecast

Using degrees Celsius for public forecast. Weather courtesy of forecast.io.

Closest aviation weather report (METAR) to Coffs Harbour Airport

Closest report is Grafton Airport, 34.0 nm (62.9 km) N. Retrieved 2019/10/19 03:00 UTC (2 minutes ago):

YGFN 190300Z AUTO 34009KT 9999 // NCD 30/02 Q1012

Closest aviation forecast (TAF) to Coffs Harbour Airport

Closest forecast is Taree Airport, 99.1 nm (183.5 km) SSW. Retrieved 2019-10-19 02:03 UTC (59 minutes ago):

TAF YTRE 190051Z 1902/1914 20008KT CAVOK FM190500 08010KT CAVOK FM191100 23008KT CAVOK